sensor_id;sensor_type;location;lat;lon;timestamp;P1;durP1;ratioP1;P2;durP2;ratioP2
3107;SDS011;1564;49.234;8.554;2023-07-13T00:01:48;3.63;;;1.30;;
3107;SDS011;1564;49.234;8.554;2023-07-13T00:04:18;1.63;;;1.00;;
3107;SDS011;1564;49.234;8.554;2023-07-13T00:06:46;3.63;;;1.00;;
3107;SDS011;1564;49.234;8.554;2023-07-13T00:09:15;2.70;;;1.20;;
3107;SDS011;1564;49.234;8.554;2023-07-13T00:11:42;1.40;;;1.10;;
3107;SDS011;1564;49.234;8.554;2023-07-13T00:14:09;1.83;;;1.03;;
3107;SDS011;1564;49.234;8.554;2023-07-13T00:16:36;1.83;;;1.23;;
3107;SDS011;1564;49.234;8.554;2023-07-13T00:19:03;3.23;;;1.53;;
3107;SDS011;1564;49.234;8.554;2023-07-13T00:21:30;2.40;;;1.40;;
3107;SDS011;1564;49.234;8.554;2023-07-13T00:23:56;1.70;;;1.20;;
3107;SDS011;1564;49.234;8.554;2023-07-13T00:26:22;5.17;;;1.27;;
3107;SDS011;1564;49.234;8.554;2023-07-13T00:28:48;2.43;;;1.30;;
3107;SDS011;1564;49.234;8.554;2023-07-13T00:31:14;1.43;;;1.10;;
3107;SDS011;1564;49.234;8.554;2023-07-13T00:33:40;1.97;;;1.20;;
3107;SDS011;1564;49.234;8.554;2023-07-13T00:36:07;2.53;;;1.50;;
3107;SDS011;1564;49.234;8.554;2023-07-13T00:38:34;3.63;;;1.40;;
3107;SDS011;1564;49.234;8.554;2023-07-13T00:41:00;2.07;;;1.27;;
3107;SDS011;1564;49.234;8.554;2023-07-13T00:43:28;3.37;;;0.90;;
3107;SDS011;1564;49.234;8.554;2023-07-13T00:49:08;2.30;;;1.33;;
3107;SDS011;1564;49.234;8.554;2023-07-13T00:51:41;1.60;;;1.10;;
3107;SDS011;1564;49.234;8.554;2023-07-13T00:54:12;2.67;;;1.50;;
3107;SDS011;1564;49.234;8.554;2023-07-13T00:56:43;4.60;;;1.40;;
3107;SDS011;1564;49.234;8.554;2023-07-13T00:59:10;6.93;;;1.33;;
3107;SDS011;1564;49.234;8.554;2023-07-13T01:01:38;2.30;;;1.47;;
3107;SDS011;1564;49.234;8.554;2023-07-13T01:04:04;1.80;;;1.17;;
3107;SDS011;1564;49.234;8.554;2023-07-13T01:06:33;1.80;;;1.27;;
3107;SDS011;1564;49.234;8.554;2023-07-13T01:09:01;2.20;;;1.30;;
3107;SDS011;1564;49.234;8.554;2023-07-13T01:11:27;4.17;;;1.40;;
3107;SDS011;1564;49.234;8.554;2023-07-13T01:13:53;3.27;;;1.30;;
3107;SDS011;1564;49.234;8.554;2023-07-13T01:16:24;2.23;;;1.47;;
3107;SDS011;1564;49.234;8.554;2023-07-13T01:18:52;2.53;;;1.63;;
3107;SDS011;1564;49.234;8.554;2023-07-13T01:21:18;3.93;;;1.60;;
3107;SDS011;1564;49.234;8.554;2023-07-13T01:23:44;2.10;;;1.20;;
3107;SDS011;1564;49.234;8.554;2023-07-13T01:26:10;1.70;;;1.30;;
3107;SDS011;1564;49.234;8.554;2023-07-13T01:28:37;2.00;;;1.50;;
3107;SDS011;1564;49.234;8.554;2023-07-13T01:31:03;2.30;;;1.53;;
3107;SDS011;1564;49.234;8.554;2023-07-13T01:33:29;2.97;;;1.43;;
3107;SDS011;1564;49.234;8.554;2023-07-13T01:35:55;1.73;;;1.17;;
3107;SDS011;1564;49.234;8.554;2023-07-13T01:38:24;1.90;;;1.30;;
3107;SDS011;1564;49.234;8.554;2023-07-13T01:40:50;1.97;;;1.43;;
3107;SDS011;1564;49.234;8.554;2023-07-13T01:43:17;1.77;;;1.43;;
3107;SDS011;1564;49.234;8.554;2023-07-13T01:45:44;1.50;;;1.27;;
3107;SDS011;1564;49.234;8.554;2023-07-13T01:48:10;3.03;;;1.47;;
3107;SDS011;1564;49.234;8.554;2023-07-13T01:50:37;2.57;;;1.67;;
3107;SDS011;1564;49.234;8.554;2023-07-13T01:53:02;1.93;;;1.20;;
3107;SDS011;1564;49.234;8.554;2023-07-13T01:55:28;3.70;;;1.20;;
3107;SDS011;1564;49.234;8.554;2023-07-13T01:57:55;3.60;;;1.30;;
3107;SDS011;1564;49.234;8.554;2023-07-13T02:00:21;2.80;;;1.60;;
3107;SDS011;1564;49.234;8.554;2023-07-13T02:02:47;2.90;;;1.50;;
3107;SDS011;1564;49.234;8.554;2023-07-13T02:05:14;2.90;;;1.40;;
3107;SDS011;1564;49.234;8.554;2023-07-13T02:07:40;3.90;;;1.43;;
3107;SDS011;1564;49.234;8.554;2023-07-13T02:10:06;2.23;;;1.70;;
3107;SDS011;1564;49.234;8.554;2023-07-13T02:12:34;4.47;;;1.87;;
3107;SDS011;1564;49.234;8.554;2023-07-13T02:15:00;1.97;;;1.30;;
3107;SDS011;1564;49.234;8.554;2023-07-13T02:17:26;2.37;;;1.50;;
3107;SDS011;1564;49.234;8.554;2023-07-13T02:19:52;1.80;;;1.30;;
3107;SDS011;1564;49.234;8.554;2023-07-13T02:22:18;5.13;;;3.13;;
3107;SDS011;1564;49.234;8.554;2023-07-13T02:24:44;2.00;;;1.50;;
3107;SDS011;1564;49.234;8.554;2023-07-13T02:27:10;2.53;;;2.03;;
3107;SDS011;1564;49.234;8.554;2023-07-13T02:29:35;2.90;;;1.60;;
3107;SDS011;1564;49.234;8.554;2023-07-13T02:32:01;2.50;;;1.70;;
3107;SDS011;1564;49.234;8.554;2023-07-13T02:34:28;2.27;;;1.60;;
3107;SDS011;1564;49.234;8.554;2023-07-13T02:36:55;3.67;;;1.50;;
3107;SDS011;1564;49.234;8.554;2023-07-13T02:39:20;1.93;;;1.67;;
3107;SDS011;1564;49.234;8.554;2023-07-13T02:41:46;6.70;;;1.80;;
3107;SDS011;1564;49.234;8.554;2023-07-13T02:44:12;2.40;;;1.80;;
3107;SDS011;1564;49.234;8.554;2023-07-13T02:46:39;2.53;;;1.50;;
3107;SDS011;1564;49.234;8.554;2023-07-13T02:49:05;2.30;;;1.43;;
3107;SDS011;1564;49.234;8.554;2023-07-13T02:51:31;3.20;;;1.70;;
3107;SDS011;1564;49.234;8.554;2023-07-13T02:53:59;3.43;;;1.40;;
3107;SDS011;1564;49.234;8.554;2023-07-13T02:56:26;2.00;;;1.60;;
3107;SDS011;1564;49.234;8.554;2023-07-13T02:58:54;2.70;;;2.03;;
3107;SDS011;1564;49.234;8.554;2023-07-13T03:01:20;2.93;;;1.70;;
3107;SDS011;1564;49.234;8.554;2023-07-13T03:03:46;4.70;;;1.70;;
3107;SDS011;1564;49.234;8.554;2023-07-13T03:06:13;2.87;;;1.87;;
3107;SDS011;1564;49.234;8.554;2023-07-13T03:08:40;3.77;;;1.80;;
3107;SDS011;1564;49.234;8.554;2023-07-13T03:11:16;2.23;;;1.50;;
3107;SDS011;1564;49.234;8.554;2023-07-13T03:13:44;3.33;;;1.20;;
3107;SDS011;1564;49.234;8.554;2023-07-13T03:16:10;2.07;;;1.40;;
3107;SDS011;1564;49.234;8.554;2023-07-13T03:18:37;2.53;;;1.73;;
3107;SDS011;1564;49.234;8.554;2023-07-13T03:21:03;2.97;;;1.70;;
3107;SDS011;1564;49.234;8.554;2023-07-13T03:23:30;4.33;;;1.93;;
3107;SDS011;1564;49.234;8.554;2023-07-13T03:26:06;4.07;;;1.93;;
3107;SDS011;1564;49.234;8.554;2023-07-13T03:28:35;2.33;;;1.60;;
3107;SDS011;1564;49.234;8.554;2023-07-13T03:31:09;2.10;;;1.60;;
3107;SDS011;1564;49.234;8.554;2023-07-13T03:33:37;2.50;;;1.47;;
3107;SDS011;1564;49.234;8.554;2023-07-13T03:36:04;3.60;;;1.83;;
3107;SDS011;1564;49.234;8.554;2023-07-13T03:38:31;2.77;;;2.07;;
3107;SDS011;1564;49.234;8.554;2023-07-13T03:40:58;3.30;;;1.67;;
3107;SDS011;1564;49.234;8.554;2023-07-13T03:43:24;2.87;;;1.50;;
3107;SDS011;1564;49.234;8.554;2023-07-13T03:45:50;5.77;;;2.30;;
3107;SDS011;1564;49.234;8.554;2023-07-13T03:48:16;2.60;;;1.93;;
3107;SDS011;1564;49.234;8.554;2023-07-13T03:50:41;2.47;;;2.00;;
3107;SDS011;1564;49.234;8.554;2023-07-13T03:53:07;2.47;;;1.60;;
3107;SDS011;1564;49.234;8.554;2023-07-13T03:55:34;2.83;;;1.53;;
3107;SDS011;1564;49.234;8.554;2023-07-13T03:58:00;3.50;;;2.10;;
3107;SDS011;1564;49.234;8.554;2023-07-13T04:00:45;2.47;;;1.67;;
3107;SDS011;1564;49.234;8.554;2023-07-13T04:03:11;2.47;;;1.70;;
3107;SDS011;1564;49.234;8.554;2023-07-13T04:05:37;3.50;;;1.70;;
3107;SDS011;1564;49.234;8.554;2023-07-13T04:08:05;4.33;;;1.77;;
3107;SDS011;1564;49.234;8.554;2023-07-13T04:10:31;2.07;;;1.43;;
3107;SDS011;1564;49.234;8.554;2023-07-13T04:12:57;2.70;;;1.60;;
3107;SDS011;1564;49.234;8.554;2023-07-13T04:15:23;4.57;;;2.57;;
3107;SDS011;1564;49.234;8.554;2023-07-13T04:17:48;5.33;;;1.97;;
3107;SDS011;1564;49.234;8.554;2023-07-13T04:20:14;4.70;;;1.80;;
3107;SDS011;1564;49.234;8.554;2023-07-13T04:22:40;2.30;;;1.60;;
3107;SDS011;1564;49.234;8.554;2023-07-13T04:25:06;3.17;;;1.43;;
3107;SDS011;1564;49.234;8.554;2023-07-13T04:27:32;2.90;;;1.70;;
3107;SDS011;1564;49.234;8.554;2023-07-13T04:29:58;1.97;;;1.27;;
3107;SDS011;1564;49.234;8.554;2023-07-13T04:32:23;3.13;;;1.70;;
3107;SDS011;1564;49.234;8.554;2023-07-13T04:34:49;3.60;;;1.53;;
3107;SDS011;1564;49.234;8.554;2023-07-13T04:37:18;6.33;;;1.80;;
3107;SDS011;1564;49.234;8.554;2023-07-13T04:39:45;2.80;;;1.83;;
3107;SDS011;1564;49.234;8.554;2023-07-13T04:42:11;3.40;;;1.83;;
3107;SDS011;1564;49.234;8.554;2023-07-13T04:44:36;5.10;;;1.57;;
3107;SDS011;1564;49.234;8.554;2023-07-13T04:47:02;2.17;;;1.80;;
3107;SDS011;1564;49.234;8.554;2023-07-13T04:49:28;4.23;;;1.93;;
3107;SDS011;1564;49.234;8.554;2023-07-13T04:51:54;3.43;;;2.03;;
3107;SDS011;1564;49.234;8.554;2023-07-13T04:54:20;4.33;;;1.97;;
3107;SDS011;1564;49.234;8.554;2023-07-13T04:56:47;3.63;;;1.63;;
3107;SDS011;1564;49.234;8.554;2023-07-13T04:59:13;2.70;;;1.80;;
3107;SDS011;1564;49.234;8.554;2023-07-13T05:01:38;5.93;;;1.70;;
3107;SDS011;1564;49.234;8.554;2023-07-13T05:04:06;4.00;;;1.53;;
3107;SDS011;1564;49.234;8.554;2023-07-13T05:06:32;3.27;;;1.43;;
3107;SDS011;1564;49.234;8.554;2023-07-13T05:08:58;3.70;;;1.90;;
3107;SDS011;1564;49.234;8.554;2023-07-13T05:11:24;2.43;;;1.67;;
3107;SDS011;1564;49.234;8.554;2023-07-13T05:13:50;5.27;;;2.10;;
3107;SDS011;1564;49.234;8.554;2023-07-13T05:16:15;3.63;;;2.10;;
3107;SDS011;1564;49.234;8.554;2023-07-13T05:18:41;4.57;;;1.40;;
3107;SDS011;1564;49.234;8.554;2023-07-13T05:21:08;3.37;;;1.90;;
3107;SDS011;1564;49.234;8.554;2023-07-13T05:23:35;2.67;;;1.60;;
3107;SDS011;1564;49.234;8.554;2023-07-13T05:26:03;4.07;;;1.40;;
3107;SDS011;1564;49.234;8.554;2023-07-13T05:28:30;2.37;;;1.73;;
3107;SDS011;1564;49.234;8.554;2023-07-13T05:30:56;4.27;;;2.30;;
3107;SDS011;1564;49.234;8.554;2023-07-13T05:33:23;2.10;;;1.30;;
3107;SDS011;1564;49.234;8.554;2023-07-13T05:35:49;3.10;;;1.50;;
3107;SDS011;1564;49.234;8.554;2023-07-13T05:38:15;2.00;;;1.10;;
3107;SDS011;1564;49.234;8.554;2023-07-13T05:40:44;3.80;;;1.17;;
3107;SDS011;1564;49.234;8.554;2023-07-13T05:43:10;3.13;;;1.93;;
3107;SDS011;1564;49.234;8.554;2023-07-13T05:45:37;2.63;;;1.47;;
3107;SDS011;1564;49.234;8.554;2023-07-13T05:48:02;4.17;;;1.50;;
3107;SDS011;1564;49.234;8.554;2023-07-13T05:50:28;9.90;;;1.87;;
3107;SDS011;1564;49.234;8.554;2023-07-13T05:52:54;6.20;;;1.73;;
3107;SDS011;1564;49.234;8.554;2023-07-13T05:55:21;1.60;;;1.20;;
3107;SDS011;1564;49.234;8.554;2023-07-13T05:57:47;1.20;;;0.90;;
3107;SDS011;1564;49.234;8.554;2023-07-13T06:00:13;2.40;;;1.40;;
3107;SDS011;1564;49.234;8.554;2023-07-13T06:02:39;2.93;;;1.60;;
3107;SDS011;1564;49.234;8.554;2023-07-13T06:05:05;2.03;;;1.30;;
3107;SDS011;1564;49.234;8.554;2023-07-13T06:07:31;1.87;;;1.63;;
3107;SDS011;1564;49.234;8.554;2023-07-13T06:09:57;1.43;;;1.03;;
3107;SDS011;1564;49.234;8.554;2023-07-13T06:12:24;1.60;;;1.30;;
3107;SDS011;1564;49.234;8.554;2023-07-13T06:14:51;1.77;;;1.43;;
3107;SDS011;1564;49.234;8.554;2023-07-13T06:17:17;2.90;;;1.40;;
3107;SDS011;1564;49.234;8.554;2023-07-13T06:19:43;1.33;;;1.20;;
3107;SDS011;1564;49.234;8.554;2023-07-13T06:22:09;2.03;;;1.30;;
3107;SDS011;1564;49.234;8.554;2023-07-13T06:24:37;2.70;;;1.27;;
3107;SDS011;1564;49.234;8.554;2023-07-13T06:27:02;2.43;;;1.13;;
3107;SDS011;1564;49.234;8.554;2023-07-13T06:29:28;2.00;;;1.03;;
3107;SDS011;1564;49.234;8.554;2023-07-13T06:31:54;1.90;;;1.50;;
3107;SDS011;1564;49.234;8.554;2023-07-13T06:34:20;2.40;;;1.40;;
3107;SDS011;1564;49.234;8.554;2023-07-13T06:36:46;2.73;;;1.60;;
3107;SDS011;1564;49.234;8.554;2023-07-13T06:39:12;1.50;;;1.10;;
3107;SDS011;1564;49.234;8.554;2023-07-13T06:41:38;3.70;;;1.23;;
3107;SDS011;1564;49.234;8.554;2023-07-13T06:44:04;2.20;;;1.20;;
3107;SDS011;1564;49.234;8.554;2023-07-13T06:46:30;2.53;;;1.33;;
3107;SDS011;1564;49.234;8.554;2023-07-13T06:48:56;1.60;;;1.30;;
3107;SDS011;1564;49.234;8.554;2023-07-13T06:51:21;3.53;;;1.20;;
3107;SDS011;1564;49.234;8.554;2023-07-13T06:53:47;1.63;;;1.47;;
3107;SDS011;1564;49.234;8.554;2023-07-13T06:56:13;1.50;;;1.17;;
3107;SDS011;1564;49.234;8.554;2023-07-13T06:58:39;1.73;;;1.23;;
3107;SDS011;1564;49.234;8.554;2023-07-13T07:01:05;2.17;;;1.50;;
3107;SDS011;1564;49.234;8.554;2023-07-13T07:03:31;2.00;;;1.30;;
3107;SDS011;1564;49.234;8.554;2023-07-13T07:08:33;3.37;;;1.50;;
3107;SDS011;1564;49.234;8.554;2023-07-13T07:10:59;1.53;;;1.00;;
3107;SDS011;1564;49.234;8.554;2023-07-13T07:13:24;3.93;;;1.90;;
3107;SDS011;1564;49.234;8.554;2023-07-13T07:15:50;3.97;;;1.17;;
3107;SDS011;1564;49.234;8.554;2023-07-13T07:18:17;1.30;;;1.00;;
3107;SDS011;1564;49.234;8.554;2023-07-13T07:20:42;5.20;;;1.37;;
3107;SDS011;1564;49.234;8.554;2023-07-13T07:23:08;2.30;;;1.20;;
3107;SDS011;1564;49.234;8.554;2023-07-13T07:25:34;2.13;;;1.27;;
3107;SDS011;1564;49.234;8.554;2023-07-13T07:28:02;3.63;;;1.33;;
3107;SDS011;1564;49.234;8.554;2023-07-13T07:30:28;2.50;;;1.40;;
3107;SDS011;1564;49.234;8.554;2023-07-13T07:32:54;1.77;;;1.20;;
3107;SDS011;1564;49.234;8.554;2023-07-13T07:35:20;2.80;;;1.20;;
3107;SDS011;1564;49.234;8.554;2023-07-13T07:37:46;1.33;;;1.07;;
3107;SDS011;1564;49.234;8.554;2023-07-13T07:40:12;5.03;;;0.90;;
3107;SDS011;1564;49.234;8.554;2023-07-13T07:42:37;3.17;;;1.00;;
3107;SDS011;1564;49.234;8.554;2023-07-13T07:45:03;2.40;;;1.10;;
3107;SDS011;1564;49.234;8.554;2023-07-13T07:47:29;1.83;;;1.10;;
3107;SDS011;1564;49.234;8.554;2023-07-13T07:49:55;2.20;;;1.00;;
3107;SDS011;1564;49.234;8.554;2023-07-13T07:52:21;2.70;;;0.97;;
3107;SDS011;1564;49.234;8.554;2023-07-13T07:54:47;1.40;;;0.80;;
3107;SDS011;1564;49.234;8.554;2023-07-13T07:57:13;1.67;;;1.23;;
3107;SDS011;1564;49.234;8.554;2023-07-13T07:59:38;1.77;;;0.93;;
3107;SDS011;1564;49.234;8.554;2023-07-13T08:02:04;3.63;;;1.13;;
3107;SDS011;1564;49.234;8.554;2023-07-13T08:04:31;1.93;;;0.90;;
3107;SDS011;1564;49.234;8.554;2023-07-13T08:06:57;3.43;;;1.13;;
3107;SDS011;1564;49.234;8.554;2023-07-13T08:09:22;1.30;;;0.90;;
3107;SDS011;1564;49.234;8.554;2023-07-13T08:11:48;1.83;;;1.00;;
3107;SDS011;1564;49.234;8.554;2023-07-13T08:14:14;4.23;;;1.63;;
3107;SDS011;1564;49.234;8.554;2023-07-13T08:16:40;1.30;;;1.00;;
3107;SDS011;1564;49.234;8.554;2023-07-13T08:19:06;1.20;;;0.80;;
3107;SDS011;1564;49.234;8.554;2023-07-13T08:21:32;1.30;;;0.90;;
3107;SDS011;1564;49.234;8.554;2023-07-13T08:23:58;2.33;;;1.13;;
3107;SDS011;1564;49.234;8.554;2023-07-13T08:26:23;1.67;;;0.90;;
3107;SDS011;1564;49.234;8.554;2023-07-13T08:28:49;2.27;;;1.07;;
3107;SDS011;1564;49.234;8.554;2023-07-13T08:31:15;4.90;;;1.27;;
3107;SDS011;1564;49.234;8.554;2023-07-13T08:33:41;1.67;;;1.00;;
3107;SDS011;1564;49.234;8.554;2023-07-13T08:36:07;3.70;;;1.00;;
3107;SDS011;1564;49.234;8.554;2023-07-13T08:38:33;2.30;;;1.00;;
3107;SDS011;1564;49.234;8.554;2023-07-13T08:40:59;2.43;;;0.70;;
3107;SDS011;1564;49.234;8.554;2023-07-13T08:43:28;7.33;;;0.97;;
3107;SDS011;1564;49.234;8.554;2023-07-13T08:46:20;1.33;;;0.80;;
3107;SDS011;1564;49.234;8.554;2023-07-13T08:49:04;2.60;;;0.80;;
3107;SDS011;1564;49.234;8.554;2023-07-13T08:51:41;1.67;;;1.00;;
3107;SDS011;1564;49.234;8.554;2023-07-13T08:55:38;1.93;;;1.20;;
3107;SDS011;1564;49.234;8.554;2023-07-13T08:58:14;4.27;;;1.40;;
3107;SDS011;1564;49.234;8.554;2023-07-13T09:00:50;1.43;;;0.93;;
3107;SDS011;1564;49.234;8.554;2023-07-13T09:03:24;1.20;;;0.90;;
3107;SDS011;1564;49.234;8.554;2023-07-13T09:05:58;2.03;;;1.40;;
3107;SDS011;1564;49.234;8.554;2023-07-13T09:08:43;1.57;;;1.00;;
3107;SDS011;1564;49.234;8.554;2023-07-13T09:11:45;5.03;;;1.30;;
3107;SDS011;1564;49.234;8.554;2023-07-13T09:14:42;5.60;;;1.00;;
3107;SDS011;1564;49.234;8.554;2023-07-13T09:17:14;3.33;;;1.40;;
3107;SDS011;1564;49.234;8.554;2023-07-13T09:19:51;5.43;;;1.13;;
3107;SDS011;1564;49.234;8.554;2023-07-13T09:22:22;1.10;;;0.90;;
3107;SDS011;1564;49.234;8.554;2023-07-13T09:24:55;1.47;;;1.00;;
3107;SDS011;1564;49.234;8.554;2023-07-13T09:27:35;1.53;;;1.00;;
3107;SDS011;1564;49.234;8.554;2023-07-13T09:35:11;1.37;;;1.00;;
3107;SDS011;1564;49.234;8.554;2023-07-13T09:37:38;2.07;;;1.73;;
3107;SDS011;1564;49.234;8.554;2023-07-13T09:40:08;1.57;;;0.90;;
3107;SDS011;1564;49.234;8.554;2023-07-13T09:42:42;1.87;;;0.83;;
3107;SDS011;1564;49.234;8.554;2023-07-13T09:45:08;1.00;;;0.80;;
3107;SDS011;1564;49.234;8.554;2023-07-13T09:47:38;1.23;;;0.90;;
3107;SDS011;1564;49.234;8.554;2023-07-13T09:50:15;1.67;;;1.07;;
3107;SDS011;1564;49.234;8.554;2023-07-13T09:52:42;2.80;;;1.00;;
3107;SDS011;1564;49.234;8.554;2023-07-13T09:58:03;1.53;;;0.97;;
3107;SDS011;1564;49.234;8.554;2023-07-13T10:00:53;1.87;;;1.10;;
3107;SDS011;1564;49.234;8.554;2023-07-13T10:03:25;1.73;;;0.80;;
3107;SDS011;1564;49.234;8.554;2023-07-13T10:06:01;2.30;;;1.00;;
3107;SDS011;1564;49.234;8.554;2023-07-13T10:08:46;2.20;;;0.90;;
3107;SDS011;1564;49.234;8.554;2023-07-13T10:11:22;1.43;;;0.90;;
3107;SDS011;1564;49.234;8.554;2023-07-13T10:13:54;2.33;;;0.80;;
3107;SDS011;1564;49.234;8.554;2023-07-13T10:16:31;1.60;;;0.90;;
3107;SDS011;1564;49.234;8.554;2023-07-13T10:19:44;1.97;;;1.10;;
3107;SDS011;1564;49.234;8.554;2023-07-13T10:22:27;1.77;;;1.00;;
3107;SDS011;1564;49.234;8.554;2023-07-13T10:25:19;2.17;;;1.20;;
3107;SDS011;1564;49.234;8.554;2023-07-13T10:27:49;1.10;;;1.00;;
3107;SDS011;1564;49.234;8.554;2023-07-13T10:30:30;1.50;;;0.90;;
3107;SDS011;1564;49.234;8.554;2023-07-13T10:33:01;1.50;;;0.90;;
3107;SDS011;1564;49.234;8.554;2023-07-13T10:35:29;3.27;;;1.23;;
3107;SDS011;1564;49.234;8.554;2023-07-13T10:40:47;2.03;;;1.20;;
3107;SDS011;1564;49.234;8.554;2023-07-13T10:43:31;1.40;;;0.80;;
3107;SDS011;1564;49.234;8.554;2023-07-13T10:46:10;1.57;;;0.97;;
3107;SDS011;1564;49.234;8.554;2023-07-13T10:48:38;1.60;;;1.13;;
3107;SDS011;1564;49.234;8.554;2023-07-13T10:51:06;1.30;;;1.10;;
3107;SDS011;1564;49.234;8.554;2023-07-13T10:53:36;3.93;;;1.00;;
3107;SDS011;1564;49.234;8.554;2023-07-13T10:56:52;3.53;;;1.10;;
3107;SDS011;1564;49.234;8.554;2023-07-13T10:59:34;1.67;;;0.87;;
3107;SDS011;1564;49.234;8.554;2023-07-13T11:05:25;3.13;;;1.03;;
3107;SDS011;1564;49.234;8.554;2023-07-13T11:08:18;2.60;;;1.07;;
3107;SDS011;1564;49.234;8.554;2023-07-13T11:10:56;3.93;;;1.30;;
3107;SDS011;1564;49.234;8.554;2023-07-13T11:13:39;2.40;;;1.00;;
3107;SDS011;1564;49.234;8.554;2023-07-13T11:16:44;1.00;;;0.90;;
3107;SDS011;1564;49.234;8.554;2023-07-13T11:22:10;5.77;;;1.27;;
3107;SDS011;1564;49.234;8.554;2023-07-13T11:24:57;5.50;;;1.90;;
3107;SDS011;1564;49.234;8.554;2023-07-13T11:27:35;1.10;;;0.80;;
3107;SDS011;1564;49.234;8.554;2023-07-13T11:34:12;0.90;;;0.80;;
3107;SDS011;1564;49.234;8.554;2023-07-13T11:36:42;4.93;;;0.80;;
3107;SDS011;1564;49.234;8.554;2023-07-13T11:39:16;1.00;;;0.80;;
3107;SDS011;1564;49.234;8.554;2023-07-13T11:41:53;1.43;;;0.90;;
3107;SDS011;1564;49.234;8.554;2023-07-13T11:44:23;1.00;;;0.90;;
3107;SDS011;1564;49.234;8.554;2023-07-13T11:46:52;2.73;;;1.00;;
3107;SDS011;1564;49.234;8.554;2023-07-13T11:49:20;1.00;;;0.80;;
3107;SDS011;1564;49.234;8.554;2023-07-13T11:51:48;1.30;;;0.83;;
3107;SDS011;1564;49.234;8.554;2023-07-13T11:57:23;4.10;;;1.30;;
3107;SDS011;1564;49.234;8.554;2023-07-13T11:59:56;1.20;;;1.00;;
3107;SDS011;1564;49.234;8.554;2023-07-13T12:02:34;1.00;;;0.90;;
3107;SDS011;1564;49.234;8.554;2023-07-13T12:05:04;1.10;;;0.80;;
3107;SDS011;1564;49.234;8.554;2023-07-13T12:07:32;1.77;;;0.90;;
3107;SDS011;1564;49.234;8.554;2023-07-13T12:10:40;1.83;;;0.90;;
3107;SDS011;1564;49.234;8.554;2023-07-13T12:13:08;2.70;;;1.07;;
3107;SDS011;1564;49.234;8.554;2023-07-13T12:15:40;2.43;;;1.00;;
3107;SDS011;1564;49.234;8.554;2023-07-13T12:18:13;1.60;;;0.80;;
3107;SDS011;1564;49.234;8.554;2023-07-13T12:20:44;1.23;;;0.80;;
3107;SDS011;1564;49.234;8.554;2023-07-13T12:23:25;1.30;;;0.90;;
3107;SDS011;1564;49.234;8.554;2023-07-13T12:26:01;5.40;;;0.80;;
3107;SDS011;1564;49.234;8.554;2023-07-13T12:31:40;1.00;;;0.80;;
3107;SDS011;1564;49.234;8.554;2023-07-13T12:34:10;2.10;;;0.93;;
3107;SDS011;1564;49.234;8.554;2023-07-13T12:36:45;1.00;;;0.80;;
3107;SDS011;1564;49.234;8.554;2023-07-13T12:39:26;0.90;;;0.70;;
3107;SDS011;1564;49.234;8.554;2023-07-13T12:45:09;5.33;;;1.03;;
3107;SDS011;1564;49.234;8.554;2023-07-13T12:47:48;1.53;;;1.43;;
3107;SDS011;1564;49.234;8.554;2023-07-13T12:50:19;0.90;;;0.70;;
3107;SDS011;1564;49.234;8.554;2023-07-13T12:52:51;1.00;;;0.90;;
3107;SDS011;1564;49.234;8.554;2023-07-13T12:55:19;1.23;;;0.87;;
3107;SDS011;1564;49.234;8.554;2023-07-13T12:57:50;1.40;;;0.80;;
3107;SDS011;1564;49.234;8.554;2023-07-13T13:00:26;1.47;;;0.97;;
3107;SDS011;1564;49.234;8.554;2023-07-13T13:02:58;1.10;;;1.00;;
3107;SDS011;1564;49.234;8.554;2023-07-13T13:05:30;1.40;;;0.80;;
3107;SDS011;1564;49.234;8.554;2023-07-13T13:07:57;1.30;;;0.90;;
3107;SDS011;1564;49.234;8.554;2023-07-13T13:10:23;2.60;;;1.07;;
3107;SDS011;1564;49.234;8.554;2023-07-13T13:12:50;2.00;;;0.80;;
3107;SDS011;1564;49.234;8.554;2023-07-13T13:15:17;1.10;;;0.70;;
3107;SDS011;1564;49.234;8.554;2023-07-13T13:17:43;1.60;;;0.90;;
3107;SDS011;1564;49.234;8.554;2023-07-13T13:20:16;0.93;;;0.83;;
3107;SDS011;1564;49.234;8.554;2023-07-13T13:22:44;3.53;;;0.90;;
3107;SDS011;1564;49.234;8.554;2023-07-13T13:25:14;2.60;;;0.80;;
3107;SDS011;1564;49.234;8.554;2023-07-13T13:27:40;1.07;;;0.87;;
3107;SDS011;1564;49.234;8.554;2023-07-13T13:30:13;0.97;;;0.87;;
3107;SDS011;1564;49.234;8.554;2023-07-13T13:32:45;4.50;;;1.00;;
3107;SDS011;1564;49.234;8.554;2023-07-13T13:35:14;6.00;;;2.20;;
3107;SDS011;1564;49.234;8.554;2023-07-13T13:37:41;2.80;;;0.97;;
3107;SDS011;1564;49.234;8.554;2023-07-13T13:40:14;1.30;;;0.80;;
3107;SDS011;1564;49.234;8.554;2023-07-13T13:42:42;1.67;;;0.80;;
3107;SDS011;1564;49.234;8.554;2023-07-13T13:45:09;1.00;;;0.80;;
3107;SDS011;1564;49.234;8.554;2023-07-13T13:47:35;2.00;;;0.77;;
3107;SDS011;1564;49.234;8.554;2023-07-13T13:50:09;0.97;;;0.70;;
3107;SDS011;1564;49.234;8.554;2023-07-13T13:52:44;1.23;;;0.80;;
3107;SDS011;1564;49.234;8.554;2023-07-13T13:55:20;1.63;;;0.90;;
3107;SDS011;1564;49.234;8.554;2023-07-13T13:57:48;1.13;;;0.90;;
3107;SDS011;1564;49.234;8.554;2023-07-13T14:00:15;2.50;;;0.87;;
3107;SDS011;1564;49.234;8.554;2023-07-13T14:02:44;2.80;;;0.70;;
3107;SDS011;1564;49.234;8.554;2023-07-13T14:05:21;3.23;;;1.00;;
3107;SDS011;1564;49.234;8.554;2023-07-13T14:07:53;2.27;;;0.80;;
3107;SDS011;1564;49.234;8.554;2023-07-13T14:10:20;0.83;;;0.67;;
3107;SDS011;1564;49.234;8.554;2023-07-13T14:12:47;2.33;;;0.90;;
3107;SDS011;1564;49.234;8.554;2023-07-13T14:15:21;0.90;;;0.70;;
3107;SDS011;1564;49.234;8.554;2023-07-13T14:17:55;0.80;;;0.73;;
3107;SDS011;1564;49.234;8.554;2023-07-13T14:20:24;0.70;;;0.65;;
3107;SDS011;1564;49.234;8.554;2023-07-13T14:22:51;0.80;;;0.70;;
3107;SDS011;1564;49.234;8.554;2023-07-13T14:25:17;4.15;;;1.02;;
3107;SDS011;1564;49.234;8.554;2023-07-13T14:27:44;2.00;;;0.80;;
3107;SDS011;1564;49.234;8.554;2023-07-13T14:30:23;1.27;;;0.75;;
3107;SDS011;1564;49.234;8.554;2023-07-13T14:32:51;1.23;;;0.70;;
3107;SDS011;1564;49.234;8.554;2023-07-13T14:35:35;1.10;;;0.80;;
3107;SDS011;1564;49.234;8.554;2023-07-13T14:38:03;1.17;;;0.77;;
3107;SDS011;1564;49.234;8.554;2023-07-13T14:40:30;2.23;;;0.73;;
3107;SDS011;1564;49.234;8.554;2023-07-13T14:42:56;1.83;;;1.00;;
3107;SDS011;1564;49.234;8.554;2023-07-13T14:45:23;1.17;;;1.07;;
3107;SDS011;1564;49.234;8.554;2023-07-13T14:47:55;1.20;;;1.00;;
3107;SDS011;1564;49.234;8.554;2023-07-13T14:50:36;3.33;;;1.00;;
3107;SDS011;1564;49.234;8.554;2023-07-13T14:53:03;0.90;;;0.70;;
3107;SDS011;1564;49.234;8.554;2023-07-13T14:55:36;1.00;;;0.80;;
3107;SDS011;1564;49.234;8.554;2023-07-13T14:58:02;5.10;;;0.80;;
3107;SDS011;1564;49.234;8.554;2023-07-13T15:00:37;2.70;;;0.73;;
3107;SDS011;1564;49.234;8.554;2023-07-13T15:03:03;1.17;;;0.87;;
3107;SDS011;1564;49.234;8.554;2023-07-13T15:05:31;0.80;;;0.60;;
3107;SDS011;1564;49.234;8.554;2023-07-13T15:07:58;1.57;;;1.00;;
3107;SDS011;1564;49.234;8.554;2023-07-13T15:10:27;1.27;;;0.80;;
3107;SDS011;1564;49.234;8.554;2023-07-13T15:13:00;1.30;;;0.93;;
3107;SDS011;1564;49.234;8.554;2023-07-13T15:15:38;1.00;;;0.80;;
3107;SDS011;1564;49.234;8.554;2023-07-13T15:18:08;5.23;;;1.60;;
3107;SDS011;1564;49.234;8.554;2023-07-13T15:20:49;1.47;;;1.00;;
3107;SDS011;1564;49.234;8.554;2023-07-13T15:26:20;2.80;;;0.73;;
3107;SDS011;1564;49.234;8.554;2023-07-13T15:28:46;0.88;;;0.68;;
3107;SDS011;1564;49.234;8.554;2023-07-13T15:31:28;0.70;;;0.60;;
3107;SDS011;1564;49.234;8.554;2023-07-13T15:33:55;0.68;;;0.62;;
3107;SDS011;1564;49.234;8.554;2023-07-13T15:36:22;2.05;;;0.65;;
3107;SDS011;1564;49.234;8.554;2023-07-13T15:38:53;0.70;;;0.70;;
3107;SDS011;1564;49.234;8.554;2023-07-13T15:41:26;0.73;;;0.70;;
3107;SDS011;1564;49.234;8.554;2023-07-13T15:43:54;0.70;;;0.62;;
3107;SDS011;1564;49.234;8.554;2023-07-13T15:46:25;1.35;;;0.90;;
3107;SDS011;1564;49.234;8.554;2023-07-13T15:48:52;2.03;;;0.90;;
3107;SDS011;1564;49.234;8.554;2023-07-13T15:51:25;1.10;;;0.70;;
3107;SDS011;1564;49.234;8.554;2023-07-13T15:53:54;1.48;;;0.82;;
3107;SDS011;1564;49.234;8.554;2023-07-13T15:56:27;1.35;;;0.80;;
3107;SDS011;1564;49.234;8.554;2023-07-13T15:58:54;1.10;;;0.98;;
3107;SDS011;1564;49.234;8.554;2023-07-13T16:01:29;0.80;;;0.80;;
3107;SDS011;1564;49.234;8.554;2023-07-13T16:03:57;0.70;;;0.70;;
3107;SDS011;1564;49.234;8.554;2023-07-13T16:06:41;0.90;;;0.70;;
3107;SDS011;1564;49.234;8.554;2023-07-13T16:09:22;4.80;;;1.02;;
3107;SDS011;1564;49.234;8.554;2023-07-13T16:11:49;0.88;;;0.70;;